createdAt,value
2019-01-17T00:01:25.192Z,88.60
2019-01-17T00:04:19.588Z,88.70
2019-01-17T00:07:09.562Z,88.60
2019-01-17T00:09:46.637Z,88.80
2019-01-17T00:12:23.130Z,89.10
2019-01-17T00:15:02.570Z,89.10
2019-01-17T00:17:39.142Z,89.20
2019-01-17T00:20:15.631Z,89.30
2019-01-17T00:22:52.544Z,89.30
2019-01-17T00:25:29.907Z,89.50
2019-01-17T00:28:10.124Z,89.30
2019-01-17T00:30:50.374Z,89.30
2019-01-17T00:33:27.156Z,89.20
2019-01-17T00:36:06.921Z,89.40
2019-01-17T00:38:56.885Z,89.50
2019-01-17T00:41:33.376Z,89.60
2019-01-17T00:44:10.461Z,89.30
2019-01-17T00:46:49.986Z,89.20
2019-01-17T00:49:29.740Z,89.30
2019-01-17T00:52:23.777Z,89.30
2019-01-17T00:55:03.686Z,89.60
2019-01-17T00:57:40.560Z,89.10
2019-01-17T01:00:20.266Z,89.20
2019-01-17T01:03:06.701Z,89.40
2019-01-17T01:05:49.880Z,89.60
2019-01-17T01:08:42.973Z,89.60
2019-01-17T01:11:37.951Z,90.20
2019-01-17T01:14:27.318Z,89.60
2019-01-17T01:17:07.461Z,90.00
2019-01-17T01:19:47.893Z,90.00
2019-01-17T01:22:27.817Z,90.00
2019-01-17T01:25:10.350Z,89.40
2019-01-17T01:27:51.273Z,89.20
2019-01-17T01:30:46.994Z,88.80
2019-01-17T01:33:41.304Z,88.60
2019-01-17T01:36:30.982Z,88.60
2019-01-17T01:39:28.161Z,88.00
2019-01-17T01:42:17.820Z,87.60
2019-01-17T01:45:01.138Z,87.60
2019-01-17T01:47:40.693Z,87.60
2019-01-17T01:50:35.171Z,87.50
2019-01-17T01:53:10.002Z,87.30
2019-01-17T01:55:44.894Z,87.20
2019-01-17T01:58:20.184Z,87.20
2019-01-17T02:00:55.065Z,87.10
2019-01-17T02:03:29.963Z,86.90
2019-01-17T02:06:05.801Z,86.80
2019-01-17T02:08:40.645Z,87.10
2019-01-17T02:11:15.973Z,87.00
2019-01-17T02:13:50.814Z,86.70
2019-01-17T02:16:25.661Z,86.80
2019-01-17T02:19:00.504Z,86.80
2019-01-17T02:21:35.699Z,86.60
2019-01-17T02:24:10.830Z,86.50
2019-01-17T02:26:45.666Z,86.50
2019-01-17T02:29:20.510Z,86.80
2019-01-17T02:31:55.537Z,86.70
2019-01-17T02:34:30.483Z,86.40
2019-01-17T02:37:05.316Z,85.90
2019-01-17T02:39:40.441Z,85.40
2019-01-17T02:42:15.294Z,85.20
2019-01-17T02:44:50.408Z,84.60
2019-01-17T02:47:25.238Z,84.30
2019-01-17T02:50:00.358Z,84.20
2019-01-17T02:52:35.715Z,84.00
2019-01-17T02:55:11.070Z,83.70
2019-01-17T02:57:45.906Z,83.50
2019-01-17T03:00:20.777Z,83.30
2019-01-17T03:02:55.605Z,83.00
2019-01-17T03:05:30.457Z,83.10
2019-01-17T03:08:05.356Z,82.60
2019-01-17T03:10:40.197Z,82.50
2019-01-17T03:13:15.381Z,82.30
2019-01-17T03:15:50.462Z,82.10
2019-01-17T03:18:25.282Z,81.70
2019-01-17T03:21:00.490Z,81.90
2019-01-17T03:23:35.329Z,81.60
2019-01-17T03:26:10.161Z,81.90
2019-01-17T03:28:45.073Z,81.70
2019-01-17T03:31:19.915Z,81.70
2019-01-17T03:33:54.782Z,81.40
2019-01-17T03:36:29.891Z,81.40
2019-01-17T03:39:07.768Z,81.40
2019-01-17T03:41:42.953Z,81.50
2019-01-17T03:44:18.153Z,81.40
2019-01-17T03:46:52.998Z,81.30
2019-01-17T03:49:31.715Z,81.20
2019-01-17T03:52:06.958Z,81.20
2019-01-17T03:54:42.199Z,81.30
2019-01-17T03:57:17.144Z,81.40
2019-01-17T03:59:52.264Z,81.20
2019-01-17T04:02:27.106Z,80.80
2019-01-17T04:05:02.966Z,81.10
2019-01-17T04:07:37.813Z,81.40
2019-01-17T04:10:15.189Z,81.20
2019-01-17T04:12:50.025Z,81.20
2019-01-17T04:15:25.150Z,81.40
2019-01-17T04:18:00.382Z,81.40
2019-01-17T04:20:35.221Z,81.10
2019-01-17T04:23:10.078Z,81.20
2019-01-17T04:25:45.177Z,81.30
2019-01-17T04:28:20.026Z,81.60
2019-01-17T04:30:55.262Z,81.60
2019-01-17T04:33:30.107Z,82.10
2019-01-17T04:36:05.316Z,82.20
2019-01-17T04:38:40.452Z,82.60
2019-01-17T04:41:15.294Z,82.40
2019-01-17T04:43:50.144Z,82.60
2019-01-17T04:46:24.993Z,82.50
2019-01-17T04:48:59.966Z,82.60
2019-01-17T04:51:34.857Z,83.20
2019-01-17T04:54:09.705Z,82.70
2019-01-17T04:56:45.800Z,82.70
2019-01-17T04:59:20.806Z,82.90
2019-01-17T05:01:55.659Z,82.40
2019-01-17T05:04:30.818Z,82.50
2019-01-17T05:07:05.672Z,82.40
2019-01-17T05:09:40.597Z,82.30
2019-01-17T05:12:15.816Z,82.10
2019-01-17T05:14:51.050Z,82.90
2019-01-17T05:17:26.291Z,82.50
2019-01-17T05:20:01.314Z,82.40
2019-01-17T05:22:36.152Z,82.30
2019-01-17T05:25:12.817Z,82.50
2019-01-17T05:27:48.791Z,82.40
2019-01-17T05:30:24.614Z,82.60
2019-01-17T05:32:59.480Z,82.60
2019-01-17T05:35:34.383Z,82.30
2019-01-17T05:38:09.540Z,82.30
2019-01-17T05:40:44.479Z,82.40
2019-01-17T05:43:19.323Z,82.50
2019-01-17T05:45:54.441Z,82.30
2019-01-17T05:48:29.989Z,82.20
2019-01-17T05:51:04.821Z,82.10
2019-01-17T05:53:39.961Z,82.10
2019-01-17T05:56:15.197Z,82.00
2019-01-17T05:58:50.346Z,82.00
2019-01-17T06:01:25.182Z,81.90
2019-01-17T06:04:00.081Z,82.30
2019-01-17T06:06:34.959Z,82.20
2019-01-17T06:09:09.800Z,82.30
2019-01-17T06:11:44.996Z,82.60
2019-01-17T06:14:19.839Z,82.90
2019-01-17T06:16:54.678Z,83.20
2019-01-17T06:19:29.545Z,83.50
2019-01-17T06:22:04.383Z,83.80
2019-01-17T06:24:39.222Z,83.90
2019-01-17T06:27:14.494Z,84.10
2019-01-17T06:29:49.327Z,84.60
2019-01-17T06:32:24.177Z,84.80
2019-01-17T06:34:59.026Z,84.50
2019-01-17T06:37:35.326Z,84.50
2019-01-17T06:40:19.745Z,84.60
2019-01-17T06:42:54.883Z,84.70
2019-01-17T06:45:31.013Z,84.90
2019-01-17T06:48:05.860Z,84.80
2019-01-17T06:50:40.714Z,85.00
2019-01-17T06:53:15.910Z,84.60
2019-01-17T06:55:50.757Z,84.80
2019-01-17T06:58:25.868Z,85.00
2019-01-17T07:01:01.010Z,85.00
2019-01-17T07:03:36.986Z,85.00
2019-01-17T07:06:11.835Z,85.00
2019-01-17T07:08:47.835Z,85.20
2019-01-17T07:11:22.742Z,85.30
2019-01-17T07:13:57.934Z,85.70
2019-01-17T07:16:33.719Z,85.30
2019-01-17T07:19:08.661Z,85.10
2019-01-17T07:21:43.521Z,85.00
2019-01-17T07:24:19.295Z,85.30
2019-01-17T07:26:54.156Z,86.10
2019-01-17T07:29:29.032Z,86.70
2019-01-17T07:32:03.943Z,87.50
2019-01-17T07:34:38.797Z,87.90
2019-01-17T07:37:13.710Z,88.10
2019-01-17T07:39:48.539Z,88.00
2019-01-17T07:42:23.375Z,88.40
2019-01-17T07:44:59.501Z,88.80
2019-01-17T07:47:34.635Z,88.50
2019-01-17T07:50:10.879Z,88.20
2019-01-17T07:52:45.793Z,88.10
2019-01-17T07:55:21.892Z,88.10
2019-01-17T07:57:57.013Z,88.20
2019-01-17T08:00:32.157Z,87.90
2019-01-17T08:03:07.386Z,87.60
2019-01-17T08:05:42.532Z,87.40
2019-01-17T08:08:18.486Z,87.40
2019-01-17T08:10:53.346Z,87.80
2019-01-17T08:13:29.175Z,87.40
2019-01-17T08:16:06.065Z,87.20
2019-01-17T08:18:40.894Z,87.30
2019-01-17T08:21:16.724Z,87.00
2019-01-17T08:23:52.521Z,87.00
2019-01-17T08:26:27.728Z,86.90
2019-01-17T08:29:02.889Z,86.60
2019-01-17T08:31:37.746Z,86.60
2019-01-17T08:34:12.932Z,86.60
2019-01-17T08:36:47.765Z,86.80
2019-01-17T08:39:22.639Z,86.60
2019-01-17T08:41:57.487Z,86.80
2019-01-17T08:44:32.344Z,86.40
2019-01-17T08:47:07.262Z,86.40
2019-01-17T08:49:46.741Z,86.00
2019-01-17T08:52:21.921Z,85.80
2019-01-17T08:54:57.097Z,85.90
2019-01-17T08:57:32.151Z,85.50
2019-01-17T09:00:13.402Z,85.50
2019-01-17T09:02:48.559Z,85.30
2019-01-17T09:05:23.379Z,85.00
2019-01-17T09:07:59.106Z,85.20
2019-01-17T09:10:34.274Z,84.40
2019-01-17T09:13:09.139Z,84.50
2019-01-17T09:15:44.066Z,84.60
2019-01-17T09:18:18.990Z,84.70
2019-01-17T09:20:54.220Z,84.80
2019-01-17T09:23:29.361Z,84.20
2019-01-17T09:26:07.631Z,84.00
2019-01-17T09:28:40.788Z,84.10
2019-01-17T09:31:16.033Z,83.70
2019-01-17T09:33:51.533Z,83.10
2019-01-17T09:36:26.465Z,82.00
2019-01-17T09:39:01.298Z,81.40
2019-01-17T09:41:38.107Z,81.00
2019-01-17T09:44:12.941Z,79.80
2019-01-17T09:46:49.506Z,79.90
2019-01-17T09:49:24.826Z,79.90
2019-01-17T09:52:00.677Z,79.20
2019-01-17T09:54:35.521Z,79.20
2019-01-17T09:57:11.240Z,78.90
2019-01-17T09:59:46.088Z,78.70
2019-01-17T10:02:20.942Z,79.10
2019-01-17T10:04:55.775Z,79.10
2019-01-17T10:07:31.035Z,79.50
2019-01-17T10:10:15.358Z,79.10
2019-01-17T10:12:50.489Z,78.50
2019-01-17T10:15:37.594Z,77.70
2019-01-17T10:18:16.130Z,77.70
2019-01-17T10:21:04.334Z,76.30
2019-01-17T10:23:53.657Z,75.40
2019-01-17T10:26:38.065Z,74.80
2019-01-17T10:29:39.071Z,75.30
2019-01-17T10:32:17.181Z,75.30
2019-01-17T10:35:12.575Z,74.90
2019-01-17T10:38:25.286Z,74.80
2019-01-17T10:41:34.822Z,74.00
2019-01-17T10:44:32.075Z,73.80
2019-01-17T10:47:36.298Z,72.80
2019-01-17T10:50:20.354Z,73.20
2019-01-17T10:53:11.350Z,73.50
2019-01-17T10:55:56.422Z,74.00
2019-01-17T10:58:50.430Z,73.80
2019-01-17T11:01:28.567Z,74.90
2019-01-17T11:04:39.349Z,75.60
2019-01-17T11:07:26.750Z,76.30
2019-01-17T11:10:36.250Z,76.50
2019-01-17T11:13:37.989Z,76.00
2019-01-17T11:16:25.365Z,75.80
2019-01-17T11:19:16.695Z,75.00
2019-01-17T11:22:22.123Z,74.50
2019-01-17T11:25:24.501Z,74.00
2019-01-17T11:28:22.056Z,73.20
2019-01-17T11:31:06.163Z,72.40
2019-01-17T11:34:00.898Z,71.20
2019-01-17T11:36:58.884Z,70.60
2019-01-17T11:39:37.346Z,69.40
2019-01-17T11:42:21.751Z,69.80
2019-01-17T11:44:59.860Z,70.40
2019-01-17T11:47:57.931Z,70.90
2019-01-17T11:50:42.155Z,71.80
2019-01-17T11:53:26.590Z,71.60
2019-01-17T11:56:10.460Z,70.20
2019-01-17T11:59:00.089Z,70.60
2019-01-17T12:01:44.969Z,70.20
2019-01-17T12:04:30.482Z,71.00
2019-01-17T12:07:07.762Z,70.80
2019-01-17T12:09:42.597Z,71.50
2019-01-17T12:12:20.002Z,71.90
2019-01-17T12:14:57.568Z,72.20
2019-01-17T12:17:32.747Z,72.30
2019-01-17T12:20:08.497Z,72.50
2019-01-17T12:22:43.729Z,72.50
2019-01-17T12:25:18.569Z,72.30
2019-01-17T12:27:53.788Z,72.30
2019-01-17T12:30:29.856Z,71.40
2019-01-17T12:33:04.695Z,70.60
2019-01-17T12:35:40.232Z,69.70
2019-01-17T12:38:15.432Z,68.70
2019-01-17T12:40:50.337Z,68.10
2019-01-17T12:43:25.193Z,67.20
2019-01-17T12:46:00.102Z,66.10
2019-01-17T12:48:35.319Z,66.70
2019-01-17T12:51:10.158Z,66.50
2019-01-17T12:53:46.093Z,66.40
2019-01-17T12:56:21.848Z,66.20
2019-01-17T12:58:58.212Z,65.20
2019-01-17T13:01:33.505Z,67.50
2019-01-17T13:04:08.786Z,66.40
2019-01-17T13:06:43.718Z,64.80
2019-01-17T13:09:20.593Z,64.10
2019-01-17T13:11:55.749Z,64.20
2019-01-17T13:14:30.875Z,65.00
2019-01-17T13:17:06.340Z,64.50
2019-01-17T13:19:41.459Z,64.60
2019-01-17T13:22:16.617Z,64.10
2019-01-17T13:24:51.755Z,63.80
2019-01-17T13:27:26.632Z,63.90
2019-01-17T13:30:01.837Z,63.60
2019-01-17T13:32:37.669Z,63.50
2019-01-17T13:35:12.523Z,63.50
2019-01-17T13:37:47.766Z,62.90
2019-01-17T13:40:22.694Z,62.60
2019-01-17T13:42:57.803Z,61.60
2019-01-17T13:45:33.894Z,61.00
2019-01-17T13:48:11.789Z,60.90
2019-01-17T13:50:47.647Z,61.10
2019-01-17T13:53:22.478Z,61.40
2019-01-17T13:55:57.326Z,61.60
2019-01-17T13:58:32.161Z,62.20
2019-01-17T14:01:08.015Z,61.90
2019-01-17T14:03:42.930Z,62.10
2019-01-17T14:06:17.786Z,62.20
2019-01-17T14:08:52.633Z,62.10
2019-01-17T14:11:29.841Z,62.30
2019-01-17T14:14:04.987Z,62.00
2019-01-17T14:16:40.327Z,62.10
2019-01-17T14:19:15.176Z,62.50
2019-01-17T14:21:50.303Z,61.90
2019-01-17T14:24:26.457Z,62.00
2019-01-17T14:27:01.306Z,62.50
2019-01-17T14:29:40.436Z,62.20
2019-01-17T14:32:15.550Z,62.10
2019-01-17T14:34:50.385Z,62.10
2019-01-17T14:37:25.238Z,62.10
2019-01-17T14:40:00.239Z,62.30
2019-01-17T14:42:36.637Z,62.40
2019-01-17T14:45:18.289Z,63.40
2019-01-17T14:47:53.562Z,63.30
2019-01-17T14:50:30.758Z,63.60
2019-01-17T14:53:06.502Z,64.20
2019-01-17T14:55:42.421Z,65.00
2019-01-17T14:58:17.599Z,65.40
2019-01-17T15:00:52.732Z,67.30
2019-01-17T15:03:27.957Z,67.00
2019-01-17T15:06:02.809Z,68.40
2019-01-17T15:08:38.730Z,69.80
2019-01-17T15:11:13.568Z,70.50
2019-01-17T15:13:48.414Z,71.90
2019-01-17T15:16:23.250Z,72.60
2019-01-17T15:18:58.374Z,73.50
2019-01-17T15:21:33.213Z,74.10
2019-01-17T15:24:08.089Z,74.60
2019-01-17T15:26:43.217Z,75.20
2019-01-17T15:29:18.078Z,75.80
2019-01-17T15:31:53.241Z,76.10
2019-01-17T15:34:28.486Z,77.40
2019-01-17T15:37:03.323Z,77.00
2019-01-17T15:39:38.457Z,77.60
2019-01-17T15:42:13.596Z,77.60
2019-01-17T15:44:48.728Z,77.40
2019-01-17T15:47:24.338Z,77.40
2019-01-17T15:50:00.257Z,77.90
2019-01-17T15:52:35.376Z,78.70
2019-01-17T15:55:13.142Z,78.50
2019-01-17T15:57:48.351Z,78.50
2019-01-17T16:00:28.552Z,78.40
2019-01-17T16:03:03.811Z,78.80
2019-01-17T16:05:40.292Z,79.20
2019-01-17T16:08:15.418Z,79.40
2019-01-17T16:10:51.384Z,79.60
2019-01-17T16:13:26.291Z,79.70
2019-01-17T16:16:01.161Z,80.40
2019-01-17T16:18:36.019Z,80.40
2019-01-17T16:21:11.942Z,81.00
2019-01-17T16:23:46.791Z,81.30
2019-01-17T16:26:21.717Z,81.50
2019-01-17T16:28:56.831Z,81.80
2019-01-17T16:31:31.974Z,81.80
2019-01-17T16:34:07.117Z,81.90
2019-01-17T16:36:43.261Z,82.30
2019-01-17T16:39:18.108Z,82.40
2019-01-17T16:41:53.249Z,81.60
2019-01-17T16:44:28.117Z,81.40
2019-01-17T16:47:03.318Z,81.10
2019-01-17T16:49:38.642Z,81.10
2019-01-17T16:52:13.501Z,81.10
2019-01-17T16:54:49.625Z,80.90
2019-01-17T16:57:24.483Z,81.30
2019-01-17T16:59:59.309Z,81.80
2019-01-17T17:02:34.559Z,82.10
2019-01-17T17:05:09.895Z,81.80
2019-01-17T17:07:44.960Z,78.80
2019-01-17T17:10:19.815Z,79.00
2019-01-17T17:12:54.690Z,79.00
2019-01-17T17:15:29.619Z,79.90
2019-01-17T17:18:04.457Z,79.70
2019-01-17T17:20:39.473Z,79.90
2019-01-17T17:23:15.558Z,81.00
2019-01-17T17:25:50.405Z,81.70
2019-01-17T17:28:25.344Z,81.50
2019-01-17T17:31:00.280Z,84.00
2019-01-17T17:33:35.570Z,84.50
2019-01-17T17:36:10.409Z,87.80
2019-01-17T17:38:46.058Z,89.20
2019-01-17T17:41:20.914Z,91.00
2019-01-17T17:43:57.217Z,91.50
2019-01-17T17:46:32.488Z,91.70
2019-01-17T17:49:07.452Z,92.20
2019-01-17T17:51:42.553Z,93.10
2019-01-17T17:54:17.706Z,93.10
2019-01-17T17:56:52.532Z,93.80
2019-01-17T17:59:27.402Z,93.70
2019-01-17T18:02:02.814Z,93.80
2019-01-17T18:04:38.046Z,93.90
2019-01-17T18:07:12.957Z,94.30
2019-01-17T18:09:48.233Z,94.00
2019-01-17T18:12:23.464Z,94.10
2019-01-17T18:14:58.309Z,93.80
2019-01-17T18:17:33.449Z,94.30
2019-01-17T18:20:11.221Z,94.20
2019-01-17T18:22:46.394Z,95.10
2019-01-17T18:25:21.525Z,94.90
2019-01-17T18:27:56.746Z,95.10
2019-01-17T18:30:31.583Z,94.90
2019-01-17T18:33:06.442Z,95.10
2019-01-17T18:35:41.399Z,95.20
2019-01-17T18:38:16.575Z,95.50
2019-01-17T18:40:51.655Z,95.40
2019-01-17T18:43:26.612Z,95.40
2019-01-17T18:46:01.906Z,95.50
2019-01-17T18:48:37.341Z,95.30
2019-01-17T18:51:13.831Z,95.50
2019-01-17T18:53:48.653Z,95.60
2019-01-17T18:56:23.541Z,95.90
2019-01-17T18:58:58.698Z,96.10
2019-01-17T19:01:33.843Z,96.10
2019-01-17T19:04:09.345Z,95.90
2019-01-17T19:06:45.237Z,95.70
2019-01-17T19:09:20.091Z,96.00
2019-01-17T19:11:55.209Z,96.20
2019-01-17T19:14:31.737Z,96.20
2019-01-17T19:17:06.595Z,96.10
2019-01-17T19:19:41.846Z,96.30
2019-01-17T19:22:16.711Z,96.40
2019-01-17T19:24:51.542Z,96.20
2019-01-17T19:27:26.878Z,96.40
2019-01-17T19:30:01.706Z,96.20
2019-01-17T19:32:36.803Z,96.10
2019-01-17T19:35:12.057Z,96.30
2019-01-17T19:37:46.934Z,96.30
2019-01-17T19:40:26.313Z,96.30
2019-01-17T19:43:01.480Z,96.20
2019-01-17T19:45:36.390Z,96.10
2019-01-17T19:48:13.497Z,96.30
2019-01-17T19:50:55.388Z,96.20
2019-01-17T19:53:30.252Z,96.10
2019-01-17T19:56:05.087Z,95.90
2019-01-17T19:58:39.933Z,96.10
2019-01-17T20:01:15.623Z,96.30
2019-01-17T20:03:50.773Z,96.10
2019-01-17T20:06:26.010Z,96.00
2019-01-17T20:09:00.912Z,96.20
2019-01-17T20:11:37.826Z,96.10
2019-01-17T20:14:12.956Z,96.00
2019-01-17T20:16:48.872Z,95.70
2019-01-17T20:19:24.063Z,95.90
2019-01-17T20:21:59.361Z,95.80
2019-01-17T20:24:34.213Z,95.50
2019-01-17T20:27:09.317Z,95.40
2019-01-17T20:29:45.118Z,95.60
2019-01-17T20:32:20.319Z,95.60
2019-01-17T20:34:56.548Z,95.60
2019-01-17T20:37:31.983Z,95.20
2019-01-17T20:40:10.329Z,95.20
2019-01-17T20:42:46.735Z,95.30
2019-01-17T20:45:23.331Z,95.40
2019-01-17T20:47:58.582Z,95.50
2019-01-17T20:50:33.440Z,95.70
2019-01-17T20:53:08.835Z,95.70
2019-01-17T20:55:43.966Z,95.20
2019-01-17T20:58:18.802Z,95.00
2019-01-17T21:01:03.982Z,94.50
2019-01-17T21:03:38.849Z,94.60
2019-01-17T21:06:14.638Z,94.40
2019-01-17T21:08:49.789Z,93.80
2019-01-17T21:11:24.641Z,93.50
2019-01-17T21:13:59.859Z,93.00
2019-01-17T21:16:34.830Z,93.20
2019-01-17T21:19:09.689Z,93.30
2019-01-17T21:21:44.888Z,93.40
2019-01-17T21:24:20.162Z,93.00
2019-01-17T21:26:55.349Z,92.60
2019-01-17T21:29:30.481Z,92.90
2019-01-17T21:32:05.628Z,93.00
2019-01-17T21:34:41.506Z,93.20
2019-01-17T21:37:16.732Z,93.30
2019-01-17T21:39:51.622Z,93.50
2019-01-17T21:42:26.788Z,93.60
2019-01-17T21:45:02.022Z,93.40
2019-01-17T21:47:37.863Z,93.70
2019-01-17T21:50:16.593Z,93.40
2019-01-17T21:52:53.786Z,93.40
2019-01-17T21:55:28.664Z,93.50
2019-01-17T21:58:04.831Z,93.70
2019-01-17T22:00:40.122Z,93.70
2019-01-17T22:03:16.646Z,93.60
2019-01-17T22:05:52.610Z,93.80
2019-01-17T22:08:27.786Z,93.80
2019-01-17T22:11:02.677Z,92.80
2019-01-17T22:13:37.635Z,92.40
2019-01-17T22:16:13.014Z,92.30
2019-01-17T22:18:48.789Z,92.50
2019-01-17T22:21:23.993Z,92.60
2019-01-17T22:23:59.066Z,92.20
2019-01-17T22:26:33.924Z,92.10
2019-01-17T22:29:08.829Z,91.60
2019-01-17T22:31:43.677Z,91.50
2019-01-17T22:34:18.547Z,91.60
2019-01-17T22:36:53.375Z,91.10
2019-01-17T22:39:28.252Z,91.90
2019-01-17T22:42:03.458Z,91.90
2019-01-17T22:44:38.374Z,91.80
2019-01-17T22:47:13.226Z,92.10
2019-01-17T22:49:48.053Z,92.50
2019-01-17T22:52:22.909Z,92.80
2019-01-17T22:54:58.111Z,93.10
2019-01-17T22:57:33.871Z,93.10
2019-01-17T23:00:26.621Z,92.50
2019-01-17T23:03:03.399Z,91.90
2019-01-17T23:05:38.640Z,91.80
2019-01-17T23:08:13.529Z,91.60
2019-01-17T23:10:48.719Z,91.70
2019-01-17T23:13:23.950Z,91.50
2019-01-17T23:15:59.101Z,91.50
2019-01-17T23:18:33.969Z,91.00
2019-01-17T23:21:09.273Z,90.70
2019-01-17T23:23:44.144Z,90.40
2019-01-17T23:26:18.987Z,90.30
2019-01-17T23:28:53.842Z,89.50
2019-01-17T23:31:29.043Z,90.20
2019-01-17T23:34:03.927Z,90.50
2019-01-17T23:36:39.082Z,91.40
2019-01-17T23:39:14.665Z,91.60
2019-01-17T23:41:49.567Z,91.20
2019-01-17T23:44:25.307Z,91.30
2019-01-17T23:47:00.241Z,91.60
2019-01-17T23:49:35.080Z,91.70
2019-01-17T23:52:10.287Z,91.70
2019-01-17T23:54:45.433Z,91.80
2019-01-17T23:57:20.562Z,91.50
2019-01-17T23:59:56.013Z,91.80
